»·PEaware :: SWA1256 KPHX-KELP

SWA1256 :: KPHX-KELP

FLIGHT INFORMATION

Flight Status: Arrived
Operator:
Southwest Airlines
More flights by this operator :: More flights under this callsign
Pilot: Anonymous 34646 (34646)
Aircraft: BOEING 737-700
(B737)
More flights by this aircraft type
Origin: KPHX Phoenix Sky Harbor Intl
United States
Destination: KELP El Paso Intl
United States
More flights between these airports :: More routes between these airports
Route: ECLPS1 PHASE TEEES MOLLY5
File this flight plan on PilotEdge
Remarks: RMK / SIMBRIEF
Altitude:
(Current/Filed)
37,000ft
Speed:
(Current/Filed)
455kts
Departed: 15-Aug-21 06:24 PM
Arrived: 15-Aug-21 07:20 PM
Distance/Time
Traveled:
300nm/0:56
Distance/Time
To Go:
Arrived

Flight Plot

Page will automatically refresh every two minutes.

Flight plan parsing failed; only flown route is shown


Map Options




Map Legend


Flown Route
Filed Route
Departure Airport
Arrival Airport
Navaid (VOR, NDB)
Fix

Horizontal Profiles

Position Reports

Time Latitude Longitude Heading Altitude Ground
Speed
15-Aug-21 17:46 33.433392 -111.994092 343 1143ft 0kts
15-Aug-21 17:47 33.433392 -111.994092 343 1143ft 0kts
15-Aug-21 17:48 33.433392 -111.994092 343 1143ft 0kts
15-Aug-21 17:54 33.433392 -111.994092 343 1143ft 0kts
15-Aug-21 17:55 33.433392 -111.994092 343 1143ft 0kts
15-Aug-21 17:56 33.433392 -111.994092 343 1143ft 0kts
15-Aug-21 17:57 33.433392 -111.994092 343 1143ft 0kts
15-Aug-21 17:58 33.433392 -111.994092 343 1143ft 0kts
15-Aug-21 17:59 33.433392 -111.994092 343 1143ft 0kts
15-Aug-21 18:00 33.433392 -111.994092 343 1143ft 0kts
15-Aug-21 18:01 33.433392 -111.994092 343 1143ft 0kts
15-Aug-21 18:02 33.433392 -111.994092 343 1143ft 0kts
15-Aug-21 18:03 33.433392 -111.994092 343 1143ft 0kts
15-Aug-21 18:04 33.433392 -111.994092 343 1143ft 0kts
15-Aug-21 18:05 33.433392 -111.994092 343 1143ft 0kts
15-Aug-21 18:06 33.433392 -111.994092 343 1143ft 0kts
15-Aug-21 18:07 33.433392 -111.994092 343 1143ft 0kts
15-Aug-21 18:08 33.433392 -111.994092 343 1143ft 0kts
15-Aug-21 18:09 33.433392 -111.994092 343 1143ft 0kts
15-Aug-21 18:10 33.433392 -111.994092 343 1143ft 0kts
15-Aug-21 18:11 33.433392 -111.994092 343 1143ft 0kts
15-Aug-21 18:12 33.433392 -111.994092 343 1143ft 0kts
15-Aug-21 18:13 33.433392 -111.994092 343 1143ft 0kts
15-Aug-21 18:14 33.433392 -111.994092 343 1143ft 0kts
15-Aug-21 18:15 33.433392 -111.994092 343 1143ft 0kts
15-Aug-21 18:16 33.433211 -111.994028 343 1143ft 2kts
15-Aug-21 18:17 33.432708 -111.993847 341 1143ft 0kts
15-Aug-21 18:18 33.432708 -111.993847 341 1143ft 0kts
15-Aug-21 18:19 33.432708 -111.993847 341 1143ft 0kts
15-Aug-21 18:20 33.432798 -111.993767 81 1143ft 1kts
15-Aug-21 18:21 33.432289 -111.993581 180 1143ft 1kts
15-Aug-21 18:22 33.431780 -111.993581 180 1143ft 10kts
15-Aug-21 18:23 33.431022 -111.999400 269 1143ft 79kts
15-Aug-21 18:24 33.431305 -112.047127 266 2403ft 164kts
15-Aug-21 18:25 33.415585 -112.109839 250 3902ft 216kts
15-Aug-21 18:26 33.391398 -112.176241 217 6615ft 224kts
15-Aug-21 18:27 33.328629 -112.168833 162 9200ft 268kts
15-Aug-21 18:28 33.259230 -112.119144 134 11578ft 320kts
15-Aug-21 18:29 33.218093 -112.017850 104 13863ft 356kts
15-Aug-21 18:30 33.189673 -111.902229 105 16730ft 369kts
15-Aug-21 18:31 33.159511 -111.786500 105 19859ft 370kts
15-Aug-21 18:32 33.127968 -111.666373 106 22092ft 389kts
15-Aug-21 18:33 33.094443 -111.540735 106 23930ft 405kts
15-Aug-21 18:34 33.051430 -111.414614 120 25593ft 421kts
15-Aug-21 18:35 32.986262 -111.296734 123 27613ft 426kts
15-Aug-21 18:36 32.921090 -111.178901 123 29769ft 426kts
15-Aug-21 18:37 32.856527 -111.061489 124 31946ft 422kts
15-Aug-21 18:38 32.792689 -110.945229 124 33929ft 418kts
15-Aug-21 18:39 32.728809 -110.830251 124 35456ft 420kts
15-Aug-21 18:40 32.662261 -110.709602 120 35688ft 452kts
15-Aug-21 18:41 32.619059 -110.566268 104 36164ft 468kts
15-Aug-21 18:42 32.586088 -110.416406 105 36775ft 475kts
15-Aug-21 18:43 32.552207 -110.264283 104 37040ft 476kts
15-Aug-21 18:44 32.518588 -110.112302 104 37039ft 477kts
15-Aug-21 18:45 32.484586 -109.960665 105 37046ft 477kts
15-Aug-21 18:46 32.450080 -109.809319 105 37077ft 477kts
15-Aug-21 18:47 32.424318 -109.655229 97 37079ft 477kts
15-Aug-21 18:48 32.405464 -109.500034 98 37090ft 477kts
15-Aug-21 18:49 32.385725 -109.344959 98 37103ft 478kts
15-Aug-21 18:50 32.365465 -109.189715 98 37120ft 478kts
15-Aug-21 18:51 32.348760 -109.033457 96 37141ft 477kts
15-Aug-21 18:52 32.333390 -108.877763 96 37164ft 478kts
15-Aug-21 18:53 32.317832 -108.721658 95 37185ft 478kts
15-Aug-21 18:54 32.302570 -108.565473 96 37203ft 478kts
15-Aug-21 18:55 32.286499 -108.410057 96 37214ft 478kts
15-Aug-21 18:56 32.270132 -108.253723 96 36806ft 478kts
15-Aug-21 18:57 32.252618 -108.097640 97 35807ft 479kts
15-Aug-21 18:58 32.234594 -107.942081 97 33674ft 480kts
15-Aug-21 18:59 32.216329 -107.785489 96 30507ft 478kts
15-Aug-21 19:00 32.198475 -107.632940 97 27953ft 462kts
15-Aug-21 19:01 32.181005 -107.485302 97 25423ft 447kts
15-Aug-21 19:02 32.164376 -107.342113 96 22923ft 433kts
15-Aug-21 19:03 32.148114 -107.203144 97 20502ft 418kts
15-Aug-21 19:04 32.131928 -107.070055 97 18233ft 401kts
15-Aug-21 19:05 32.113034 -106.940146 104 15397ft 399kts
15-Aug-21 19:06 32.085379 -106.816708 104 12994ft 364kts
15-Aug-21 19:07 32.058666 -106.704957 105 10890ft 350kts
15-Aug-21 19:08 32.033822 -106.603715 106 9768ft 292kts
15-Aug-21 19:09 32.011611 -106.513893 107 9080ft 257kts
15-Aug-21 19:10 31.984804 -106.444045 121 8950ft 203kts
15-Aug-21 19:11 31.958505 -106.391517 121 9000ft 183kts
15-Aug-21 19:13 31.932978 -106.339912 121 9003ft 183kts
15-Aug-21 19:14 31.907479 -106.289246 121 8001ft 180kts
15-Aug-21 19:15 31.894407 -106.236437 48 6252ft 186kts
15-Aug-21 19:16 31.915646 -106.262506 229 5365ft 175kts
15-Aug-21 19:17 31.878412 -106.300119 220 5429ft 173kts
15-Aug-21 19:18 31.846168 -106.337084 231 4710ft 153kts
15-Aug-21 19:19 31.819219 -106.375202 229 3966ft 144kts
15-Aug-21 19:20 31.806102 -106.392396 186 3966ft 18kts
15-Aug-21 19:21 31.803856 -106.392724 188 3966ft 4kts
15-Aug-21 19:22 31.801218 -106.394245 248 3966ft 11kts
15-Aug-21 19:23 31.800249 -106.394662 179 3966ft 0kts
15-Aug-21 19:24 31.800249 -106.394662 179 3966ft 0kts

Navigation Log

Ident Type
Flight plan parsing failed, navigation log unavailable